sensor_id;sensor_type;location;lat;lon;timestamp;pressure;altitude;pressure_sealevel;temperature;humidity
67738;BME280;54534;43.612;1.572;2022-12-18T00:00:59;99735.06;;;18.10;45.16
67738;BME280;54534;43.612;1.572;2022-12-18T00:03:25;99748.38;;;18.10;45.57
67738;BME280;54534;43.612;1.572;2022-12-18T00:05:51;99730.72;;;18.09;45.53
67738;BME280;54534;43.612;1.572;2022-12-18T00:08:18;99736.03;;;18.09;45.28
67738;BME280;54534;43.612;1.572;2022-12-18T00:10:44;99736.91;;;18.10;45.36
67738;BME280;54534;43.612;1.572;2022-12-18T00:13:10;99730.72;;;18.09;45.52
67738;BME280;54534;43.612;1.572;2022-12-18T00:15:37;99729.00;;;18.08;45.27
67738;BME280;54534;43.612;1.572;2022-12-18T00:18:04;99726.34;;;18.08;45.23
67738;BME280;54534;43.612;1.572;2022-12-18T00:20:30;99721.00;;;18.08;45.41
67738;BME280;54534;43.612;1.572;2022-12-18T00:22:55;99721.88;;;18.09;45.23
67738;BME280;54534;43.612;1.572;2022-12-18T00:25:21;99720.28;;;18.06;45.34
67738;BME280;54534;43.612;1.572;2022-12-18T00:27:47;99724.66;;;18.07;45.08
67738;BME280;54534;43.612;1.572;2022-12-18T00:30:12;99711.34;;;18.07;45.03
67738;BME280;54534;43.612;1.572;2022-12-18T00:32:38;99709.63;;;18.06;45.24
67738;BME280;54534;43.612;1.572;2022-12-18T00:35:04;99711.44;;;18.06;45.05
67738;BME280;54534;43.612;1.572;2022-12-18T00:37:30;99712.41;;;18.05;45.13
67738;BME280;54534;43.612;1.572;2022-12-18T00:39:55;99718.69;;;18.04;45.37
67738;BME280;54534;43.612;1.572;2022-12-18T00:42:21;99727.53;;;18.04;45.25
67738;BME280;54534;43.612;1.572;2022-12-18T00:45:09;99724.88;;;18.04;45.07
67738;BME280;54534;43.612;1.572;2022-12-18T00:47:34;99722.19;;;18.04;44.84
67738;BME280;54534;43.612;1.572;2022-12-18T00:50:00;99720.50;;;18.03;45.27
67738;BME280;54534;43.612;1.572;2022-12-18T00:52:25;99717.81;;;18.03;45.00
67738;BME280;54534;43.612;1.572;2022-12-18T00:54:51;99725.81;;;18.03;45.17
67738;BME280;54534;43.612;1.572;2022-12-18T00:57:16;99722.28;;;18.03;45.01
67738;BME280;54534;43.612;1.572;2022-12-18T00:59:42;99730.28;;;18.03;45.03
67738;BME280;54534;43.612;1.572;2022-12-18T01:02:07;99733.06;;;18.01;45.06
67738;BME280;54534;43.612;1.572;2022-12-18T01:04:33;99736.56;;;18.01;45.22
67738;BME280;54534;43.612;1.572;2022-12-18T01:06:59;99742.84;;;18.00;45.25
67738;BME280;54534;43.612;1.572;2022-12-18T01:09:24;99746.44;;;17.99;44.92
67738;BME280;54534;43.612;1.572;2022-12-18T01:11:49;99750.09;;;17.98;45.00
67738;BME280;54534;43.612;1.572;2022-12-18T01:14:15;99755.41;;;17.98;44.65
67738;BME280;54534;43.612;1.572;2022-12-18T01:16:40;99755.50;;;17.97;44.79
67738;BME280;54534;43.612;1.572;2022-12-18T01:19:06;99763.47;;;17.97;44.77
67738;BME280;54534;43.612;1.572;2022-12-18T01:21:31;99767.13;;;17.96;44.85
67738;BME280;54534;43.612;1.572;2022-12-18T01:23:57;99772.44;;;17.96;45.07
67738;BME280;54534;43.612;1.572;2022-12-18T01:26:23;99770.72;;;17.95;44.75
67738;BME280;54534;43.612;1.572;2022-12-18T01:28:49;99769.84;;;17.94;45.08
67738;BME280;54534;43.612;1.572;2022-12-18T01:31:18;99779.75;;;17.92;44.62
67738;BME280;54534;43.612;1.572;2022-12-18T01:33:45;99778.91;;;17.92;44.92
67738;BME280;54534;43.612;1.572;2022-12-18T01:38:48;99784.34;;;17.90;44.72
67738;BME280;54534;43.612;1.572;2022-12-18T01:41:16;99786.16;;;17.89;44.60
67738;BME280;54534;43.612;1.572;2022-12-18T01:46:07;99795.09;;;17.88;45.08
67738;BME280;54534;43.612;1.572;2022-12-18T01:48:33;99801.38;;;17.87;44.96
67738;BME280;54534;43.612;1.572;2022-12-18T01:50:59;99804.13;;;17.86;45.12
67738;BME280;54534;43.612;1.572;2022-12-18T01:53:25;99801.56;;;17.84;44.71
67738;BME280;54534;43.612;1.572;2022-12-18T01:55:58;99792.72;;;17.84;44.84
67738;BME280;54534;43.612;1.572;2022-12-18T01:58:46;99796.38;;;17.83;44.81
67738;BME280;54534;43.612;1.572;2022-12-18T02:01:13;99795.63;;;17.81;44.77
67738;BME280;54534;43.612;1.572;2022-12-18T02:03:43;99800.09;;;17.80;44.59
67738;BME280;54534;43.612;1.572;2022-12-18T02:06:15;99792.19;;;17.78;44.83
67738;BME280;54534;43.612;1.572;2022-12-18T02:16:43;99821.69;;;17.75;44.62
67738;BME280;54534;43.612;1.572;2022-12-18T02:27:39;99822.19;;;17.67;44.86
67738;BME280;54534;43.612;1.572;2022-12-18T02:30:06;99826.53;;;17.68;44.55
67738;BME280;54534;43.612;1.572;2022-12-18T02:32:38;99833.66;;;17.68;44.41
67738;BME280;54534;43.612;1.572;2022-12-18T02:35:06;99832.84;;;17.67;44.44
67738;BME280;54534;43.612;1.572;2022-12-18T02:37:34;99829.31;;;17.67;44.85
67738;BME280;54534;43.612;1.572;2022-12-18T02:40:00;99832.84;;;17.67;45.00
67738;BME280;54534;43.612;1.572;2022-12-18T02:42:28;99822.28;;;17.66;44.70
67738;BME280;54534;43.612;1.572;2022-12-18T02:44:54;99826.84;;;17.64;44.36
67738;BME280;54534;43.612;1.572;2022-12-18T02:47:22;99826.75;;;17.65;44.54
67738;BME280;54534;43.612;1.572;2022-12-18T02:53:04;99832.19;;;17.64;44.34
67738;BME280;54534;43.612;1.572;2022-12-18T02:58:33;99840.25;;;17.62;44.58
67738;BME280;54534;43.612;1.572;2022-12-18T03:03:46;99838.53;;;17.61;44.61
67738;BME280;54534;43.612;1.572;2022-12-18T03:06:27;99834.94;;;17.62;44.26
67738;BME280;54534;43.612;1.572;2022-12-18T03:08:59;99829.72;;;17.61;44.26
67738;BME280;54534;43.612;1.572;2022-12-18T03:11:30;99826.19;;;17.60;44.57
67738;BME280;54534;43.612;1.572;2022-12-18T03:14:19;99822.78;;;17.58;44.29
67738;BME280;54534;43.612;1.572;2022-12-18T03:16:52;99816.53;;;17.59;44.54
67738;BME280;54534;43.612;1.572;2022-12-18T03:19:22;99824.50;;;17.59;44.32
67738;BME280;54534;43.612;1.572;2022-12-18T03:21:52;99820.13;;;17.58;44.23
67738;BME280;54534;43.612;1.572;2022-12-18T03:24:20;99812.16;;;17.58;44.58
67738;BME280;54534;43.612;1.572;2022-12-18T03:26:50;99813.00;;;17.59;44.38
67738;BME280;54534;43.612;1.572;2022-12-18T03:29:22;99807.03;;;17.55;44.27
67738;BME280;54534;43.612;1.572;2022-12-18T03:31:56;99811.28;;;17.58;44.45
67738;BME280;54534;43.612;1.572;2022-12-18T03:34:37;99808.75;;;17.56;44.09
67738;BME280;54534;43.612;1.572;2022-12-18T03:37:04;99805.34;;;17.54;44.57
67738;BME280;54534;43.612;1.572;2022-12-18T03:39:30;99801.72;;;17.55;44.32
67738;BME280;54534;43.612;1.572;2022-12-18T03:42:22;99791.09;;;17.55;44.30
67738;BME280;54534;43.612;1.572;2022-12-18T03:48:28;99791.28;;;17.52;44.44
67738;BME280;54534;43.612;1.572;2022-12-18T03:55:57;99783.41;;;17.50;43.92
67738;BME280;54534;43.612;1.572;2022-12-18T03:58:25;99783.53;;;17.49;44.38
67738;BME280;54534;43.612;1.572;2022-12-18T04:00:53;99779.16;;;17.48;44.23
67738;BME280;54534;43.612;1.572;2022-12-18T04:03:22;99778.97;;;17.51;44.24
67738;BME280;54534;43.612;1.572;2022-12-18T04:05:51;99777.16;;;17.51;44.00
67738;BME280;54534;43.612;1.572;2022-12-18T04:08:18;99780.75;;;17.50;44.03
67738;BME280;54534;43.612;1.572;2022-12-18T04:10:43;99778.97;;;17.51;44.13
67738;BME280;54534;43.612;1.572;2022-12-18T04:13:09;99772.91;;;17.49;44.21
67738;BME280;54534;43.612;1.572;2022-12-18T04:15:36;99775.44;;;17.50;43.95
67738;BME280;54534;43.612;1.572;2022-12-18T04:18:02;99765.75;;;17.49;44.00
67738;BME280;54534;43.612;1.572;2022-12-18T04:20:28;99773.84;;;17.48;43.91
67738;BME280;54534;43.612;1.572;2022-12-18T04:22:53;99773.72;;;17.49;43.97
67738;BME280;54534;43.612;1.572;2022-12-18T04:25:18;99771.06;;;17.49;44.33
67738;BME280;54534;43.612;1.572;2022-12-18T04:27:44;99772.03;;;17.48;44.29
67738;BME280;54534;43.612;1.572;2022-12-18T04:30:09;99769.38;;;17.48;44.15
67738;BME280;54534;43.612;1.572;2022-12-18T04:32:35;99766.81;;;17.47;44.33
67738;BME280;54534;43.612;1.572;2022-12-18T04:35:01;99770.31;;;17.47;44.25
67738;BME280;54534;43.612;1.572;2022-12-18T04:37:26;99775.66;;;17.47;44.07
67738;BME280;54534;43.612;1.572;2022-12-18T04:39:52;99761.50;;;17.47;43.95
67738;BME280;54534;43.612;1.572;2022-12-18T04:42:17;99758.00;;;17.46;43.96
67738;BME280;54534;43.612;1.572;2022-12-18T04:44:42;99767.78;;;17.45;44.10
67738;BME280;54534;43.612;1.572;2022-12-18T04:47:08;99773.09;;;17.45;44.08
67738;BME280;54534;43.612;1.572;2022-12-18T04:49:33;99777.56;;;17.45;43.80
67738;BME280;54534;43.612;1.572;2022-12-18T04:51:59;99777.66;;;17.43;43.87
67738;BME280;54534;43.612;1.572;2022-12-18T04:54:24;99787.34;;;17.44;43.92
67738;BME280;54534;43.612;1.572;2022-12-18T04:56:50;99788.31;;;17.43;43.95
67738;BME280;54534;43.612;1.572;2022-12-18T04:59:16;99784.69;;;17.44;43.97
67738;BME280;54534;43.612;1.572;2022-12-18T05:01:41;99795.31;;;17.44;43.93
67738;BME280;54534;43.612;1.572;2022-12-18T05:04:06;99794.44;;;17.44;43.99
67738;BME280;54534;43.612;1.572;2022-12-18T05:06:32;99794.44;;;17.44;43.74
67738;BME280;54534;43.612;1.572;2022-12-18T05:08:57;99801.59;;;17.43;43.63
67738;BME280;54534;43.612;1.572;2022-12-18T05:11:23;99805.09;;;17.44;44.04
67738;BME280;54534;43.612;1.572;2022-12-18T05:13:48;99801.88;;;17.39;43.99
67738;BME280;54534;43.612;1.572;2022-12-18T05:16:14;99808.72;;;17.43;43.96
67738;BME280;54534;43.612;1.572;2022-12-18T05:18:40;99815.81;;;17.42;44.01
67738;BME280;54534;43.612;1.572;2022-12-18T05:21:05;99815.81;;;17.42;44.05
67738;BME280;54534;43.612;1.572;2022-12-18T05:23:31;99823.06;;;17.40;43.58
67738;BME280;54534;43.612;1.572;2022-12-18T05:25:59;99834.56;;;17.41;43.94
67738;BME280;54534;43.612;1.572;2022-12-18T05:28:26;99838.16;;;17.40;43.74
67738;BME280;54534;43.612;1.572;2022-12-18T05:30:55;99833.69;;;17.40;43.75
67738;BME280;54534;43.612;1.572;2022-12-18T05:33:22;99841.66;;;17.40;44.04
67738;BME280;54534;43.612;1.572;2022-12-18T05:35:53;99839.09;;;17.39;43.60
67738;BME280;54534;43.612;1.572;2022-12-18T05:38:20;99841.75;;;17.39;43.73
67738;BME280;54534;43.612;1.572;2022-12-18T05:40:46;99846.25;;;17.38;43.68
67738;BME280;54534;43.612;1.572;2022-12-18T05:43:12;99841.88;;;17.37;43.93
67738;BME280;54534;43.612;1.572;2022-12-18T05:45:38;99842.72;;;17.38;43.48
67738;BME280;54534;43.612;1.572;2022-12-18T05:48:04;99840.91;;;17.38;43.54
67738;BME280;54534;43.612;1.572;2022-12-18T05:50:29;99834.81;;;17.36;43.80
67738;BME280;54534;43.612;1.572;2022-12-18T05:52:54;99848.97;;;17.37;43.64
67738;BME280;54534;43.612;1.572;2022-12-18T05:55:20;99855.16;;;17.37;43.64
67738;BME280;54534;43.612;1.572;2022-12-18T05:57:45;99851.63;;;17.37;43.47
67738;BME280;54534;43.612;1.572;2022-12-18T06:00:11;99855.16;;;17.37;43.79
67738;BME280;54534;43.612;1.572;2022-12-18T06:02:37;99854.28;;;17.37;43.52
67738;BME280;54534;43.612;1.572;2022-12-18T06:05:02;99850.88;;;17.34;43.51
67738;BME280;54534;43.612;1.572;2022-12-18T06:07:28;99857.06;;;17.35;43.80
67738;BME280;54534;43.612;1.572;2022-12-18T06:09:53;99848.13;;;17.36;43.78
67738;BME280;54534;43.612;1.572;2022-12-18T06:12:18;99844.63;;;17.36;43.72
67738;BME280;54534;43.612;1.572;2022-12-18T06:14:44;99854.41;;;17.35;43.72
67738;BME280;54534;43.612;1.572;2022-12-18T06:17:09;99852.59;;;17.36;43.52
67738;BME280;54534;43.612;1.572;2022-12-18T06:19:35;99844.72;;;17.34;43.78
67738;BME280;54534;43.612;1.572;2022-12-18T06:22:00;99846.50;;;17.33;43.44
67738;BME280;54534;43.612;1.572;2022-12-18T06:24:25;99858.97;;;17.33;43.66
67738;BME280;54534;43.612;1.572;2022-12-18T06:26:51;99857.16;;;17.33;43.66
67738;BME280;54534;43.612;1.572;2022-12-18T06:29:16;99856.31;;;17.33;43.51
67738;BME280;54534;43.612;1.572;2022-12-18T06:31:42;99854.59;;;17.32;43.64
67738;BME280;54534;43.612;1.572;2022-12-18T06:34:07;99855.47;;;17.32;43.42
67738;BME280;54534;43.612;1.572;2022-12-18T06:36:33;99859.06;;;17.31;43.35
67738;BME280;54534;43.612;1.572;2022-12-18T06:38:58;99861.72;;;17.31;43.59
67738;BME280;54534;43.612;1.572;2022-12-18T06:41:24;99863.50;;;17.31;43.54
67738;BME280;54534;43.612;1.572;2022-12-18T06:43:50;99852.88;;;17.31;43.33
67738;BME280;54534;43.612;1.572;2022-12-18T06:46:15;99859.06;;;17.31;43.58
67738;BME280;54534;43.612;1.572;2022-12-18T06:48:41;99864.38;;;17.31;43.36
67738;BME280;54534;43.612;1.572;2022-12-18T06:51:06;99863.50;;;17.31;43.58
67738;BME280;54534;43.612;1.572;2022-12-18T06:53:32;99865.22;;;17.32;43.30
67738;BME280;54534;43.612;1.572;2022-12-18T06:56:06;99869.69;;;17.31;43.11
67738;BME280;54534;43.612;1.572;2022-12-18T06:58:32;99863.50;;;17.31;43.37
67738;BME280;54534;43.612;1.572;2022-12-18T07:01:03;99857.25;;;17.32;43.49
67738;BME280;54534;43.612;1.572;2022-12-18T07:03:29;99854.78;;;17.29;43.25
67738;BME280;54534;43.612;1.572;2022-12-18T07:05:55;99858.19;;;17.31;43.09
67738;BME280;54534;43.612;1.572;2022-12-18T07:08:21;99852.13;;;17.29;43.30
67738;BME280;54534;43.612;1.572;2022-12-18T07:10:46;99854.72;;;17.30;43.23
67738;BME280;54534;43.612;1.572;2022-12-18T07:13:14;99848.53;;;17.30;43.22
67738;BME280;54534;43.612;1.572;2022-12-18T07:15:40;99845.03;;;17.29;43.35
67738;BME280;54534;43.612;1.572;2022-12-18T07:18:05;99849.47;;;17.29;43.53
67738;BME280;54534;43.612;1.572;2022-12-18T07:20:30;99850.34;;;17.29;43.12
67738;BME280;54534;43.612;1.572;2022-12-18T07:22:56;99853.94;;;17.28;43.35
67738;BME280;54534;43.612;1.572;2022-12-18T07:25:21;99853.09;;;17.28;43.37
67738;BME280;54534;43.612;1.572;2022-12-18T07:27:47;99853.09;;;17.28;43.42
67738;BME280;54534;43.612;1.572;2022-12-18T07:30:12;99846.94;;;17.27;43.13
67738;BME280;54534;43.612;1.572;2022-12-18T07:32:37;99841.63;;;17.27;43.10
67738;BME280;54534;43.612;1.572;2022-12-18T07:35:03;99834.50;;;17.28;43.22
67738;BME280;54534;43.612;1.572;2022-12-18T07:37:29;99828.22;;;17.29;43.22
67738;BME280;54534;43.612;1.572;2022-12-18T07:39:54;99822.16;;;17.27;43.06
67738;BME280;54534;43.612;1.572;2022-12-18T07:42:19;99828.31;;;17.27;43.29
67738;BME280;54534;43.612;1.572;2022-12-18T07:44:58;99836.31;;;17.27;42.94
67738;BME280;54534;43.612;1.572;2022-12-18T07:47:23;99847.97;;;17.25;42.88
67738;BME280;54534;43.612;1.572;2022-12-18T07:49:49;99856.69;;;17.27;43.08
67738;BME280;54534;43.612;1.572;2022-12-18T07:52:14;99858.41;;;17.28;42.98
67738;BME280;54534;43.612;1.572;2022-12-18T07:54:40;99864.69;;;17.27;43.08
67738;BME280;54534;43.612;1.572;2022-12-18T07:57:06;99860.22;;;17.27;43.03
67738;BME280;54534;43.612;1.572;2022-12-18T07:59:32;99864.69;;;17.27;42.95
67738;BME280;54534;43.612;1.572;2022-12-18T08:01:58;99863.81;;;17.26;43.01
67738;BME280;54534;43.612;1.572;2022-12-18T08:04:24;99868.28;;;17.26;43.38
67738;BME280;54534;43.612;1.572;2022-12-18T08:06:49;99871.78;;;17.26;43.10
67738;BME280;54534;43.612;1.572;2022-12-18T08:09:15;99869.31;;;17.23;42.87
67738;BME280;54534;43.612;1.572;2022-12-18T08:11:41;99871.13;;;17.22;43.28
67738;BME280;54534;43.612;1.572;2022-12-18T08:14:06;99881.66;;;17.24;43.33
67738;BME280;54534;43.612;1.572;2022-12-18T08:16:32;99881.75;;;17.22;43.16
67738;BME280;54534;43.612;1.572;2022-12-18T08:18:58;99879.22;;;17.21;43.30
67738;BME280;54534;43.612;1.572;2022-12-18T08:21:27;99879.00;;;17.24;43.39
67738;BME280;54534;43.612;1.572;2022-12-18T08:23:54;99890.50;;;17.25;43.11
67738;BME280;54534;43.612;1.572;2022-12-18T08:26:20;99885.19;;;17.25;43.52
67738;BME280;54534;43.612;1.572;2022-12-18T08:28:46;99879.88;;;17.25;43.55
67738;BME280;54534;43.612;1.572;2022-12-18T08:31:11;99875.41;;;17.25;43.47
67738;BME280;54534;43.612;1.572;2022-12-18T08:33:38;99871.91;;;17.25;43.68
67738;BME280;54534;43.612;1.572;2022-12-18T08:36:04;99864.78;;;17.25;43.46
67738;BME280;54534;43.612;1.572;2022-12-18T08:38:31;99865.63;;;17.26;43.62
67738;BME280;54534;43.612;1.572;2022-12-18T08:41:04;99874.44;;;17.26;43.47
67738;BME280;54534;43.612;1.572;2022-12-18T08:43:30;99865.63;;;17.26;43.51
67738;BME280;54534;43.612;1.572;2022-12-18T08:46:14;99851.56;;;17.23;43.39
67738;BME280;54534;43.612;1.572;2022-12-18T08:48:39;99846.06;;;17.27;43.38
67738;BME280;54534;43.612;1.572;2022-12-18T08:51:05;99848.84;;;17.25;43.76
67738;BME280;54534;43.612;1.572;2022-12-18T08:53:30;99841.69;;;17.26;43.58
67738;BME280;54534;43.612;1.572;2022-12-18T08:55:56;99853.31;;;17.25;43.71
67738;BME280;54534;43.612;1.572;2022-12-18T08:58:22;99870.00;;;17.27;43.62
67738;BME280;54534;43.612;1.572;2022-12-18T09:00:47;99864.69;;;17.27;43.59
67738;BME280;54534;43.612;1.572;2022-12-18T09:03:17;99866.47;;;17.26;43.55
67738;BME280;54534;43.612;1.572;2022-12-18T09:05:43;99862.13;;;17.25;43.50
67738;BME280;54534;43.612;1.572;2022-12-18T09:08:08;99866.59;;;17.25;43.56
67738;BME280;54534;43.612;1.572;2022-12-18T09:10:41;99859.56;;;17.23;43.67
67738;BME280;54534;43.612;1.572;2022-12-18T09:13:06;99869.25;;;17.25;43.72
67738;BME280;54534;43.612;1.572;2022-12-18T09:15:32;99869.25;;;17.25;43.63
67738;BME280;54534;43.612;1.572;2022-12-18T09:17:57;99863.94;;;17.25;43.64
67738;BME280;54534;43.612;1.572;2022-12-18T09:20:23;99864.78;;;17.25;43.70
67738;BME280;54534;43.612;1.572;2022-12-18T09:22:49;99867.44;;;17.25;43.53
67738;BME280;54534;43.612;1.572;2022-12-18T09:25:14;99871.91;;;17.25;43.64
67738;BME280;54534;43.612;1.572;2022-12-18T09:27:40;99873.59;;;17.26;43.74
67738;BME280;54534;43.612;1.572;2022-12-18T09:30:06;99868.28;;;17.26;43.44
67738;BME280;54534;43.612;1.572;2022-12-18T09:32:31;99876.25;;;17.26;43.71
67738;BME280;54534;43.612;1.572;2022-12-18T09:34:57;99880.63;;;17.27;43.66
67738;BME280;54534;43.612;1.572;2022-12-18T09:37:22;99874.44;;;17.26;43.71
67738;BME280;54534;43.612;1.572;2022-12-18T09:39:48;99872.66;;;17.27;43.70
67738;BME280;54534;43.612;1.572;2022-12-18T09:42:22;99877.03;;;17.28;43.88
67738;BME280;54534;43.612;1.572;2022-12-18T09:44:53;99873.50;;;17.27;43.91
67738;BME280;54534;43.612;1.572;2022-12-18T09:50:22;99869.06;;;17.28;43.88
67738;BME280;54534;43.612;1.572;2022-12-18T09:52:51;99865.63;;;17.26;43.79
67738;BME280;54534;43.612;1.572;2022-12-18T09:55:27;99871.78;;;17.26;43.82
67738;BME280;54534;43.612;1.572;2022-12-18T09:58:02;99852.53;;;17.22;43.87
67738;BME280;54534;43.612;1.572;2022-12-18T10:00:29;99862.13;;;17.25;43.90
67738;BME280;54534;43.612;1.572;2022-12-18T10:03:03;99850.63;;;17.25;44.10
67738;BME280;54534;43.612;1.572;2022-12-18T10:08:24;99854.34;;;17.22;44.00
67738;BME280;54534;43.612;1.572;2022-12-18T10:11:03;99858.81;;;17.21;44.21
67738;BME280;54534;43.612;1.572;2022-12-18T10:13:41;99858.81;;;17.21;44.04
67738;BME280;54534;43.612;1.572;2022-12-18T10:16:19;99858.81;;;17.21;43.96
67738;BME280;54534;43.612;1.572;2022-12-18T10:24:33;99857.84;;;17.22;44.46
67738;BME280;54534;43.612;1.572;2022-12-18T10:27:12;99859.47;;;17.25;44.21
67738;BME280;54534;43.612;1.572;2022-12-18T10:29:39;99859.38;;;17.27;44.53
67738;BME280;54534;43.612;1.572;2022-12-18T10:32:04;99862.03;;;17.27;44.53
67738;BME280;54534;43.612;1.572;2022-12-18T10:34:30;99853.09;;;17.28;44.79
67738;BME280;54534;43.612;1.572;2022-12-18T10:36:56;99861.09;;;17.28;44.66
67738;BME280;54534;43.612;1.572;2022-12-18T10:39:23;99861.91;;;17.28;44.57
67738;BME280;54534;43.612;1.572;2022-12-18T10:41:51;99862.03;;;17.27;44.89
67738;BME280;54534;43.612;1.572;2022-12-18T10:44:21;99873.41;;;17.29;44.56
67738;BME280;54534;43.612;1.572;2022-12-18T10:46:54;99871.59;;;17.29;44.50
67738;BME280;54534;43.612;1.572;2022-12-18T10:49:29;99871.59;;;17.29;44.63
67738;BME280;54534;43.612;1.572;2022-12-18T10:52:14;99869.81;;;17.30;44.84
67738;BME280;54534;43.612;1.572;2022-12-18T10:54:52;99860.97;;;17.29;44.72
67738;BME280;54534;43.612;1.572;2022-12-18T10:59:57;99863.50;;;17.31;44.87
67738;BME280;54534;43.612;1.572;2022-12-18T11:02:27;99856.50;;;17.30;44.91
67738;BME280;54534;43.612;1.572;2022-12-18T11:04:53;99868.19;;;17.27;44.76
67738;BME280;54534;43.612;1.572;2022-12-18T11:07:18;99860.31;;;17.26;44.81
67738;BME280;54534;43.612;1.572;2022-12-18T11:09:59;99854.78;;;17.29;44.64
67738;BME280;54534;43.612;1.572;2022-12-18T11:12:33;99849.47;;;17.29;44.95
67738;BME280;54534;43.612;1.572;2022-12-18T11:14:59;99853.84;;;17.30;44.89
67738;BME280;54534;43.612;1.572;2022-12-18T11:17:28;99851.19;;;17.30;44.93
67738;BME280;54534;43.612;1.572;2022-12-18T11:20:00;99840.56;;;17.30;44.91
67738;BME280;54534;43.612;1.572;2022-12-18T11:22:30;99829.94;;;17.30;44.70
67738;BME280;54534;43.612;1.572;2022-12-18T11:25:00;99829.94;;;17.30;44.81
67738;BME280;54534;43.612;1.572;2022-12-18T11:27:26;99826.53;;;17.28;44.95
67738;BME280;54534;43.612;1.572;2022-12-18T11:30:21;99811.41;;;17.28;44.90
67738;BME280;54534;43.612;1.572;2022-12-18T11:32:48;99810.47;;;17.29;44.70
67738;BME280;54534;43.612;1.572;2022-12-18T11:35:28;99805.16;;;17.29;44.86
67738;BME280;54534;43.612;1.572;2022-12-18T11:38:26;99794.53;;;17.29;44.62
67738;BME280;54534;43.612;1.572;2022-12-18T11:41:16;99779.44;;;17.30;44.91
67738;BME280;54534;43.612;1.572;2022-12-18T11:43:51;99774.13;;;17.30;44.71
67738;BME280;54534;43.612;1.572;2022-12-18T11:46:45;99760.84;;;17.30;44.79
67738;BME280;54534;43.612;1.572;2022-12-18T11:49:28;99761.69;;;17.30;44.85
67738;BME280;54534;43.612;1.572;2022-12-18T11:52:03;99759.84;;;17.31;45.02
67738;BME280;54534;43.612;1.572;2022-12-18T11:54:30;99767.94;;;17.29;44.95
67738;BME280;54534;43.612;1.572;2022-12-18T11:57:01;99773.06;;;17.32;44.80
67738;BME280;54534;43.612;1.572;2022-12-18T11:59:41;99772.09;;;17.33;45.06
67738;BME280;54534;43.612;1.572;2022-12-18T12:05:01;99766.78;;;17.33;45.16
67738;BME280;54534;43.612;1.572;2022-12-18T12:11:05;99763.19;;;17.34;44.73
67738;BME280;54534;43.612;1.572;2022-12-18T12:13:55;99764.88;;;17.36;44.87
67738;BME280;54534;43.612;1.572;2022-12-18T12:19:12;99770.94;;;17.38;44.95
67738;BME280;54534;43.612;1.572;2022-12-18T12:22:02;99764.66;;;17.39;45.30
67738;BME280;54534;43.612;1.572;2022-12-18T12:38:04;99746.19;;;17.50;45.43
67738;BME280;54534;43.612;1.572;2022-12-18T12:40:35;99745.34;;;17.50;45.53
67738;BME280;54534;43.612;1.572;2022-12-18T12:43:12;99746.09;;;17.52;45.27
67738;BME280;54534;43.612;1.572;2022-12-18T12:51:12;99750.47;;;17.53;45.36
67738;BME280;54534;43.612;1.572;2022-12-18T12:53:39;99745.25;;;17.51;45.53
67738;BME280;54534;43.612;1.572;2022-12-18T12:56:06;99750.34;;;17.54;45.23
67738;BME280;54534;43.612;1.572;2022-12-18T13:01:25;99741.53;;;17.54;45.42
67738;BME280;54534;43.612;1.572;2022-12-18T13:04:03;99740.69;;;17.53;45.31
67738;BME280;54534;43.612;1.572;2022-12-18T13:06:53;99738.88;;;17.54;45.45
67738;BME280;54534;43.612;1.572;2022-12-18T13:09:22;99742.47;;;17.53;45.58
67738;BME280;54534;43.612;1.572;2022-12-18T13:11:47;99753.00;;;17.54;45.21
67738;BME280;54534;43.612;1.572;2022-12-18T13:14:38;99746.84;;;17.54;45.46
67738;BME280;54534;43.612;1.572;2022-12-18T13:17:34;99746.84;;;17.54;45.42
67738;BME280;54534;43.612;1.572;2022-12-18T13:20:08;99753.00;;;17.54;45.49
67738;BME280;54534;43.612;1.572;2022-12-18T13:22:35;99755.66;;;17.54;45.39
67738;BME280;54534;43.612;1.572;2022-12-18T13:25:02;99748.53;;;17.55;45.61
67738;BME280;54534;43.612;1.572;2022-12-18T13:30:41;99753.84;;;17.55;45.43
67738;BME280;54534;43.612;1.572;2022-12-18T13:38:39;99762.03;;;17.52;45.17
67738;BME280;54534;43.612;1.572;2022-12-18T13:43:41;99760.63;;;17.33;45.17
67738;BME280;54534;43.612;1.572;2022-12-18T13:48:56;99764.63;;;17.26;45.20
67738;BME280;54534;43.612;1.572;2022-12-18T13:51:23;99772.59;;;17.26;45.03
67738;BME280;54534;43.612;1.572;2022-12-18T13:53:53;99767.28;;;17.26;45.08
67738;BME280;54534;43.612;1.572;2022-12-18T13:56:24;99769.13;;;17.25;45.40
67738;BME280;54534;43.612;1.572;2022-12-18T14:01:35;99766.34;;;17.27;45.21
67738;BME280;54534;43.612;1.572;2022-12-18T14:04:31;99760.16;;;17.26;45.18
67738;BME280;54534;43.612;1.572;2022-12-18T14:07:00;99758.47;;;17.25;45.34
67738;BME280;54534;43.612;1.572;2022-12-18T14:09:30;99763.78;;;17.25;45.16
67738;BME280;54534;43.612;1.572;2022-12-18T14:11:57;99754.84;;;17.26;45.34
67738;BME280;54534;43.612;1.572;2022-12-18T14:14:45;99757.50;;;17.26;45.32
67738;BME280;54534;43.612;1.572;2022-12-18T14:17:13;99754.97;;;17.25;45.44
67738;BME280;54534;43.612;1.572;2022-12-18T14:19:48;99757.63;;;17.25;45.28
67738;BME280;54534;43.612;1.572;2022-12-18T14:22:20;99754.19;;;17.22;45.39
67738;BME280;54534;43.612;1.572;2022-12-18T14:24:46;99749.75;;;17.23;45.33
67738;BME280;54534;43.612;1.572;2022-12-18T14:27:24;99752.31;;;17.25;45.66
67738;BME280;54534;43.612;1.572;2022-12-18T14:29:50;99762.94;;;17.25;45.41
67738;BME280;54534;43.612;1.572;2022-12-18T14:32:18;99757.50;;;17.26;45.44
67738;BME280;54534;43.612;1.572;2022-12-18T14:34:47;99753.91;;;17.27;45.64
67738;BME280;54534;43.612;1.572;2022-12-18T14:37:14;99747.63;;;17.28;45.41
67738;BME280;54534;43.612;1.572;2022-12-18T14:39:40;99740.50;;;17.29;45.60
67738;BME280;54534;43.612;1.572;2022-12-18T14:42:05;99735.09;;;17.30;45.50
67738;BME280;54534;43.612;1.572;2022-12-18T14:44:31;99738.59;;;17.31;45.77
67738;BME280;54534;43.612;1.572;2022-12-18T14:46:56;99749.22;;;17.31;45.52
67738;BME280;54534;43.612;1.572;2022-12-18T14:51:53;99760.41;;;17.36;45.52